createdAt,value
2023-04-10T00:02:16.544Z,7.35
2023-04-10T00:17:18.244Z,6.82
2023-04-10T00:32:19.919Z,7.02
2023-04-10T00:47:22.214Z,7.44
2023-04-10T01:02:24.106Z,7.36
2023-04-10T01:17:36.585Z,8.57
2023-04-10T01:32:41.565Z,8.07
2023-04-10T01:47:43.503Z,7.25
2023-04-10T02:02:45.893Z,9.15
2023-04-10T02:17:48.178Z,9.58
2023-04-10T02:32:49.930Z,7.38
2023-04-10T02:47:51.905Z,8.19
2023-04-10T03:02:54.048Z,9.64
2023-04-10T03:17:56.771Z,8.16
2023-04-10T03:32:58.472Z,9.93
2023-04-10T03:48:00.218Z,8.63
2023-04-10T04:03:05.100Z,8.46
2023-04-10T04:18:06.945Z,7.91
2023-04-10T04:33:08.676Z,7.95
2023-04-10T04:48:10.410Z,7.21
2023-04-10T05:03:12.349Z,9.38
2023-04-10T05:18:14.381Z,9.41
2023-04-10T05:33:16.193Z,9.57
2023-04-10T05:48:18.923Z,10.58
2023-04-10T06:03:20.770Z,9.81
2023-04-10T06:18:22.405Z,10.07
2023-04-10T06:33:26.233Z,11.06
2023-04-10T06:48:28.287Z,11.04
2023-04-10T07:03:31.438Z,10.08
2023-04-10T07:18:33.173Z,9.54
2023-04-10T07:33:36.258Z,10.61
2023-04-10T07:48:37.948Z,10.46
2023-04-10T08:03:46.762Z,11.04
2023-04-10T08:18:48.637Z,10.69
2023-04-10T08:33:50.783Z,11.00
2023-04-10T08:49:01.033Z,9.39
2023-04-10T09:04:02.836Z,10.10
2023-04-10T09:19:06.503Z,10.05
2023-04-10T09:34:19.426Z,11.18
2023-04-10T09:49:21.053Z,11.30
2023-04-10T10:04:23.376Z,10.04
2023-04-10T10:19:33.498Z,11.34
2023-04-10T10:34:35.871Z,8.76
2023-04-10T10:49:54.511Z,10.98
2023-04-10T11:04:56.218Z,10.28
2023-04-10T11:20:00.124Z,12.46
2023-04-10T11:35:03.654Z,12.75
2023-04-10T11:50:08.128Z,10.92
2023-04-10T12:05:09.955Z,11.37
2023-04-10T12:20:12.023Z,11.26
2023-04-10T12:35:13.799Z,10.85
2023-04-10T12:50:17.548Z,10.87
2023-04-10T13:05:19.473Z,9.71
2023-04-10T13:20:22.505Z,10.73
2023-04-10T13:35:24.213Z,10.88
2023-04-10T13:50:25.880Z,10.72
2023-04-10T14:05:27.596Z,10.71
2023-04-10T14:20:29.238Z,11.05
2023-04-10T14:35:30.912Z,11.15
2023-04-10T14:50:33.645Z,9.82
2023-04-10T15:05:35.486Z,9.85
2023-04-10T15:20:37.547Z,11.33
2023-04-10T15:35:39.295Z,9.60
2023-04-10T15:50:41.569Z,8.18
2023-04-10T16:05:43.213Z,10.58
2023-04-10T16:20:44.877Z,10.82
2023-04-10T16:35:47.817Z,9.56
2023-04-10T16:50:49.624Z,9.38
2023-04-10T17:05:51.417Z,7.71
2023-04-10T17:20:53.061Z,9.74
2023-04-10T17:35:55.649Z,9.52
2023-04-10T17:50:57.813Z,9.57
2023-04-10T18:05:59.836Z,6.99
2023-04-10T18:21:06.191Z,7.87
2023-04-10T18:36:08.488Z,8.27
2023-04-10T18:51:11.690Z,8.78
2023-04-10T19:06:13.395Z,8.19
2023-04-10T19:21:15.429Z,9.57
2023-04-10T19:36:18.452Z,9.67
2023-04-10T19:51:21.101Z,9.36
2023-04-10T20:06:22.738Z,9.51
2023-04-10T20:21:24.464Z,8.07
2023-04-10T20:36:26.584Z,8.34
2023-04-10T20:51:28.957Z,7.95
2023-04-10T21:06:33.332Z,8.73
2023-04-10T21:21:35.492Z,8.86
2023-04-10T21:36:38.285Z,8.10
2023-04-10T21:51:42.873Z,6.89
2023-04-10T22:06:44.533Z,7.74
2023-04-10T22:21:46.269Z,8.04
2023-04-10T22:36:48.395Z,7.71
2023-04-10T22:51:51.380Z,6.95
2023-04-10T23:06:53.268Z,9.16
2023-04-10T23:21:55.792Z,8.41
2023-04-10T23:36:58.305Z,8.05
2023-04-10T23:51:59.913Z,7.98
